createdAt,value
2022-08-16T00:03:07.066Z,20.49
2022-08-16T00:06:20.507Z,20.45
2022-08-16T00:09:27.174Z,20.43
2022-08-16T00:12:35.283Z,20.41
2022-08-16T00:15:51.121Z,20.40
2022-08-16T00:19:03.019Z,20.38
2022-08-16T00:22:13.743Z,20.35
2022-08-16T00:26:33.860Z,20.34
2022-08-16T00:28:54.527Z,20.32
2022-08-16T00:32:07.428Z,20.31
2022-08-16T00:35:19.105Z,20.27
2022-08-16T00:38:40.768Z,20.24
2022-08-16T00:41:49.889Z,20.20
2022-08-16T00:44:59.743Z,20.19
2022-08-16T00:48:28.767Z,20.17
2022-08-16T00:51:39.076Z,20.14
2022-08-16T00:54:45.347Z,20.11
2022-08-16T00:57:58.972Z,20.07
2022-08-16T01:01:08.842Z,20.03
2022-08-16T01:04:25.768Z,20.03
2022-08-16T01:07:51.374Z,20.02
2022-08-16T01:11:02.586Z,19.99
2022-08-16T01:14:13.637Z,19.97
2022-08-16T01:17:24.214Z,19.96
2022-08-16T01:20:35.759Z,19.97
2022-08-16T01:24:01.496Z,19.94
2022-08-16T01:27:14.982Z,19.91
2022-08-16T01:30:26.133Z,19.89
2022-08-16T01:33:35.878Z,19.87
2022-08-16T01:36:42.797Z,19.84
2022-08-16T01:39:53.070Z,19.82
2022-08-16T01:43:00.351Z,19.80
2022-08-16T01:46:37.956Z,19.77
2022-08-16T01:49:45.437Z,19.72
2022-08-16T01:53:10.046Z,19.70
2022-08-16T01:56:46.375Z,19.69
2022-08-16T01:59:57.102Z,19.68
2022-08-16T02:03:04.465Z,19.66
2022-08-16T02:06:11.337Z,19.63
2022-08-16T02:09:19.510Z,19.60
2022-08-16T02:12:45.839Z,19.59
2022-08-16T02:15:59.405Z,19.56
2022-08-16T02:19:15.825Z,19.54
2022-08-16T02:22:34.197Z,19.53
2022-08-16T02:25:52.407Z,19.47
2022-08-16T02:29:04.219Z,19.46
2022-08-16T02:32:50.148Z,19.44
2022-08-16T02:35:53.617Z,19.37
2022-08-16T02:39:06.395Z,19.29
2022-08-16T02:42:13.169Z,19.25
2022-08-16T02:45:27.680Z,19.21
2022-08-16T02:48:36.283Z,19.20
2022-08-16T02:51:47.052Z,19.23
2022-08-16T02:54:55.231Z,19.24
2022-08-16T02:58:03.065Z,19.23
2022-08-16T03:01:24.287Z,19.22
2022-08-16T03:04:51.158Z,19.19
2022-08-16T03:08:01.298Z,19.15
2022-08-16T03:11:17.881Z,19.10
2022-08-16T03:14:28.087Z,19.08
2022-08-16T03:17:53.222Z,19.07
2022-08-16T03:21:03.055Z,19.07
2022-08-16T03:24:29.127Z,19.05
2022-08-16T03:27:41.111Z,19.01
2022-08-16T03:30:53.066Z,18.99
2022-08-16T03:34:06.180Z,18.98
2022-08-16T03:37:13.199Z,18.97
2022-08-16T03:40:32.795Z,18.95
2022-08-16T03:43:50.982Z,18.93
2022-08-16T03:47:01.290Z,18.92
2022-08-16T03:50:26.037Z,18.94
2022-08-16T03:53:38.069Z,18.93
2022-08-16T03:56:56.853Z,18.90
2022-08-16T04:00:35.155Z,18.88
2022-08-16T04:03:45.016Z,18.88
2022-08-16T04:06:54.512Z,18.88
2022-08-16T04:10:35.520Z,18.87
2022-08-16T04:14:01.371Z,18.89
2022-08-16T04:17:01.693Z,18.94
2022-08-16T04:20:29.595Z,18.98
2022-08-16T04:23:45.439Z,19.03
2022-08-16T04:26:53.939Z,19.08
2022-08-16T04:30:03.813Z,19.15
2022-08-16T04:33:15.433Z,19.23
2022-08-16T04:36:23.613Z,19.33
2022-08-16T04:39:46.182Z,19.42
2022-08-16T04:42:55.822Z,19.50
2022-08-16T04:46:05.857Z,19.59
2022-08-16T04:49:43.735Z,19.70
2022-08-16T04:52:55.694Z,19.81
2022-08-16T04:56:11.586Z,19.88
2022-08-16T04:59:18.617Z,19.96
2022-08-16T05:02:41.577Z,20.06
2022-08-16T05:05:59.172Z,20.16
2022-08-16T05:09:12.674Z,20.26
2022-08-16T05:12:22.041Z,20.37
2022-08-16T05:15:38.111Z,20.48
2022-08-16T05:18:44.677Z,20.56
2022-08-16T05:21:55.542Z,20.64
2022-08-16T05:25:09.263Z,20.66
2022-08-16T05:28:30.948Z,20.74
2022-08-16T05:31:48.356Z,20.85
2022-08-16T05:35:00.812Z,20.96
2022-08-16T05:38:32.286Z,21.03
2022-08-16T05:41:45.464Z,21.09
2022-08-16T05:44:55.805Z,21.18
2022-08-16T05:48:07.418Z,21.28
2022-08-16T05:51:35.794Z,21.29
2022-08-16T05:54:58.731Z,21.32
2022-08-16T05:58:31.633Z,21.43
2022-08-16T06:01:42.117Z,21.55
2022-08-16T06:04:48.364Z,21.67
2022-08-16T06:07:58.273Z,21.79
2022-08-16T06:11:13.501Z,21.91
2022-08-16T06:14:23.529Z,21.99
2022-08-16T06:17:43.375Z,22.07
2022-08-16T06:21:03.271Z,22.14
2022-08-16T06:24:54.007Z,22.27
2022-08-16T06:27:40.926Z,22.38
2022-08-16T06:30:47.315Z,22.45
2022-08-16T06:33:59.288Z,22.49
2022-08-16T06:37:12.622Z,22.54
2022-08-16T06:40:33.281Z,22.66
2022-08-16T06:43:40.336Z,22.81
2022-08-16T06:46:53.785Z,22.85
2022-08-16T06:50:03.178Z,22.96
2022-08-16T06:53:24.557Z,23.06
2022-08-16T06:56:37.570Z,23.10
2022-08-16T06:59:53.075Z,23.15
2022-08-16T07:03:26.944Z,23.28
2022-08-16T07:06:38.348Z,23.37
2022-08-16T07:09:51.418Z,23.45
2022-08-16T07:13:03.389Z,23.49
2022-08-16T07:16:20.468Z,23.54
2022-08-16T07:20:01.803Z,23.54
2022-08-16T07:22:59.553Z,23.64
2022-08-16T07:26:25.406Z,23.51
2022-08-16T07:29:34.766Z,23.45
2022-08-16T07:32:42.406Z,23.51
2022-08-16T07:35:58.176Z,23.70
2022-08-16T07:39:10.034Z,23.87
2022-08-16T07:42:20.329Z,23.97
2022-08-16T07:45:34.331Z,24.09
2022-08-16T07:48:41.329Z,24.18
2022-08-16T07:51:56.288Z,24.30
2022-08-16T07:55:14.106Z,24.38
2022-08-16T07:58:34.236Z,24.39
2022-08-16T08:01:44.626Z,24.44
2022-08-16T08:04:51.857Z,24.50
2022-08-16T08:07:59.516Z,24.59
2022-08-16T08:11:13.395Z,24.68
2022-08-16T08:14:29.637Z,24.74
2022-08-16T08:17:42.841Z,24.72
2022-08-16T08:20:59.429Z,24.75
2022-08-16T08:24:15.558Z,24.76
2022-08-16T08:27:25.526Z,24.90
2022-08-16T08:31:00.583Z,25.00
2022-08-16T08:34:01.119Z,25.06
2022-08-16T08:37:12.130Z,25.08
2022-08-16T08:40:19.622Z,25.08
2022-08-16T08:43:41.637Z,25.06
2022-08-16T08:46:59.745Z,25.11
2022-08-16T08:50:11.169Z,25.23
2022-08-16T08:53:19.465Z,25.31
2022-08-16T08:56:45.918Z,25.24
2022-08-16T09:00:31.676Z,25.32
2022-08-16T09:03:57.433Z,25.44
2022-08-16T09:07:04.207Z,25.56
2022-08-16T09:10:20.751Z,25.62
2022-08-16T09:13:32.892Z,25.69
2022-08-16T09:17:01.494Z,25.73
2022-08-16T09:20:10.582Z,25.73
2022-08-16T09:23:22.361Z,25.80
2022-08-16T09:26:45.480Z,25.84
2022-08-16T09:30:00.281Z,25.84
2022-08-16T09:33:10.413Z,25.86
2022-08-16T09:36:31.820Z,25.91
2022-08-16T09:39:41.609Z,25.96
2022-08-16T09:42:58.695Z,26.05
2022-08-16T09:46:49.040Z,26.14
2022-08-16T09:49:37.602Z,26.22
2022-08-16T09:52:48.025Z,26.27
2022-08-16T09:55:58.647Z,26.35
2022-08-16T09:59:08.689Z,26.44
2022-08-16T10:02:26.302Z,26.45
2022-08-16T10:05:38.131Z,26.46
2022-08-16T10:09:04.324Z,26.53
2022-08-16T10:12:28.281Z,26.59
2022-08-16T10:15:35.834Z,26.68
2022-08-16T10:19:01.497Z,26.71
2022-08-16T10:22:15.383Z,26.75
2022-08-16T10:27:00.650Z,26.81
2022-08-16T10:28:50.932Z,26.88
2022-08-16T10:31:57.249Z,26.94
2022-08-16T10:35:06.503Z,26.99
2022-08-16T10:38:27.440Z,27.03
2022-08-16T10:41:34.941Z,27.10
2022-08-16T10:44:42.471Z,27.21
2022-08-16T10:48:02.633Z,27.33
2022-08-16T10:51:10.190Z,27.43
2022-08-16T10:54:28.706Z,27.47
2022-08-16T10:57:36.052Z,27.54
2022-08-16T11:00:46.146Z,27.60
2022-08-16T11:03:54.514Z,27.68
2022-08-16T11:07:08.656Z,27.76
2022-08-16T11:14:10.859Z,27.86
2022-08-16T11:17:17.528Z,27.99
2022-08-16T11:20:41.458Z,28.19
2022-08-16T11:23:58.290Z,28.40
2022-08-16T11:27:32.519Z,28.59
2022-08-16T11:30:38.973Z,28.74
2022-08-16T11:33:53.867Z,28.90
2022-08-16T11:37:02.914Z,28.97
2022-08-16T11:40:14.764Z,28.99
2022-08-16T11:43:33.849Z,29.07
2022-08-16T11:46:45.050Z,29.22
2022-08-16T11:49:53.369Z,29.47
2022-08-16T11:53:00.397Z,29.58
2022-08-16T11:56:09.361Z,29.67
2022-08-16T11:59:19.367Z,29.69
2022-08-16T12:02:33.027Z,29.73
2022-08-16T12:05:41.720Z,29.84
2022-08-16T12:08:50.805Z,29.95
2022-08-16T12:11:57.927Z,29.73
2022-08-16T12:15:07.656Z,29.53
2022-08-16T12:18:20.478Z,29.42
2022-08-16T12:21:26.818Z,29.34
2022-08-16T12:24:43.148Z,29.35
2022-08-16T12:27:50.305Z,29.05
2022-08-16T12:31:00.526Z,28.68
2022-08-16T12:34:08.111Z,28.56
2022-08-16T12:37:15.757Z,28.49
2022-08-16T12:40:32.903Z,28.65
2022-08-16T12:43:45.290Z,28.92
2022-08-16T12:47:06.157Z,28.93
2022-08-16T12:50:14.926Z,28.84
2022-08-16T12:53:22.104Z,28.82
2022-08-16T12:56:31.519Z,28.67
2022-08-16T12:59:38.588Z,28.62
2022-08-16T13:02:50.244Z,28.78
2022-08-16T13:05:56.754Z,28.86
2022-08-16T13:09:20.314Z,28.89
2022-08-16T13:12:28.548Z,29.13
2022-08-16T13:15:36.209Z,29.34
2022-08-16T13:19:00.562Z,29.11
2022-08-16T13:22:08.852Z,28.95
2022-08-16T13:25:28.736Z,28.80
2022-08-16T13:28:36.035Z,28.74
2022-08-16T13:31:42.953Z,28.79
2022-08-16T13:34:52.774Z,28.66
2022-08-16T13:37:58.965Z,28.74
2022-08-16T13:41:08.504Z,28.80
2022-08-16T13:44:15.570Z,28.97
2022-08-16T13:47:22.521Z,29.10
2022-08-16T13:50:51.357Z,29.07
2022-08-16T13:54:03.840Z,29.10
2022-08-16T13:57:11.586Z,29.12
2022-08-16T14:00:21.340Z,29.07
2022-08-16T14:03:28.926Z,29.00
2022-08-16T14:06:39.843Z,29.02
2022-08-16T14:09:47.017Z,28.99
2022-08-16T14:12:57.302Z,28.93
2022-08-16T14:16:03.456Z,28.98
2022-08-16T14:19:19.041Z,29.11
2022-08-16T14:22:35.632Z,29.13
2022-08-16T14:25:53.576Z,29.17
2022-08-16T14:29:03.511Z,29.20
2022-08-16T14:32:13.237Z,29.18
2022-08-16T14:35:50.232Z,29.04
2022-08-16T14:39:00.758Z,28.92
2022-08-16T14:42:10.813Z,28.94
2022-08-16T14:45:23.587Z,28.98
2022-08-16T14:48:29.975Z,29.03
2022-08-16T14:51:36.952Z,28.98
2022-08-16T14:54:48.392Z,29.11
2022-08-16T14:57:57.493Z,29.20
2022-08-16T15:01:04.860Z,29.27
2022-08-16T15:04:12.321Z,29.28
2022-08-16T15:07:50.690Z,29.15
2022-08-16T15:11:00.995Z,29.18
2022-08-16T15:14:08.028Z,29.15
2022-08-16T15:17:15.990Z,29.16
2022-08-16T15:20:26.248Z,29.14
2022-08-16T15:23:34.655Z,29.23
2022-08-16T15:26:47.111Z,29.31
2022-08-16T15:29:54.232Z,29.35
2022-08-16T15:33:06.452Z,29.39
2022-08-16T15:36:17.745Z,29.45
2022-08-16T15:39:31.805Z,29.52
2022-08-16T15:42:54.041Z,29.89
2022-08-16T15:46:35.613Z,30.36
2022-08-16T15:49:46.776Z,30.76
2022-08-16T15:53:00.389Z,30.85
2022-08-16T15:56:09.471Z,30.71
2022-08-16T15:59:20.653Z,30.56
2022-08-16T16:02:30.842Z,30.46
2022-08-16T16:05:37.605Z,30.24
2022-08-16T16:08:44.719Z,30.01
2022-08-16T16:11:52.043Z,29.91
2022-08-16T16:15:03.342Z,29.84
2022-08-16T16:18:10.912Z,29.85
2022-08-16T16:21:20.321Z,29.98
2022-08-16T16:24:31.383Z,30.19
2022-08-16T16:27:38.439Z,30.28
2022-08-16T16:30:48.070Z,30.75
2022-08-16T16:33:59.007Z,31.34
2022-08-16T16:37:05.269Z,31.81
2022-08-16T16:40:28.900Z,32.00
2022-08-16T16:43:40.489Z,32.08
2022-08-16T16:46:56.676Z,32.07
2022-08-16T16:50:06.705Z,31.90
2022-08-16T16:53:17.488Z,31.74
2022-08-16T16:56:31.105Z,31.64
2022-08-16T16:59:36.628Z,31.20
2022-08-16T17:02:49.609Z,30.71
2022-08-16T17:06:03.243Z,30.28
2022-08-16T17:09:16.047Z,29.90
2022-08-16T17:12:46.359Z,29.59
2022-08-16T17:15:52.168Z,29.33
2022-08-16T17:19:16.195Z,29.10
2022-08-16T17:22:32.940Z,28.85
2022-08-16T17:25:40.099Z,28.65
2022-08-16T17:28:59.413Z,28.47
2022-08-16T17:32:47.458Z,28.20
2022-08-16T17:35:45.820Z,27.97
2022-08-16T17:39:03.179Z,27.74
2022-08-16T17:42:16.075Z,27.49
2022-08-16T17:45:23.311Z,27.26
2022-08-16T17:48:31.299Z,27.03
2022-08-16T17:51:40.883Z,26.84
2022-08-16T17:54:47.001Z,26.65
2022-08-16T17:57:54.382Z,26.42
2022-08-16T18:01:03.399Z,26.27
2022-08-16T18:04:10.330Z,26.11
2022-08-16T18:07:19.091Z,25.96
2022-08-16T18:10:33.143Z,25.87
2022-08-16T18:13:43.416Z,25.75
2022-08-16T18:16:51.221Z,25.62
2022-08-16T18:19:57.592Z,25.54
2022-08-16T18:23:12.397Z,25.49
2022-08-16T18:26:20.941Z,25.41
2022-08-16T18:29:27.661Z,25.38
2022-08-16T18:32:42.746Z,25.31
2022-08-16T18:35:52.105Z,25.26
2022-08-16T18:39:06.165Z,25.14
2022-08-16T18:42:17.842Z,25.05
2022-08-16T18:45:24.047Z,24.97
2022-08-16T18:48:42.210Z,24.85
2022-08-16T18:51:49.362Z,24.76
2022-08-16T18:55:02.524Z,24.67
2022-08-16T18:58:19.835Z,24.53
2022-08-16T19:01:26.670Z,24.40
2022-08-16T19:04:55.075Z,24.31
2022-08-16T19:07:59.550Z,24.21
2022-08-16T19:11:14.051Z,24.11
2022-08-16T19:14:23.708Z,24.05
2022-08-16T19:17:29.690Z,24.07
2022-08-16T19:20:37.333Z,24.07
2022-08-16T19:23:44.628Z,24.06
2022-08-16T19:26:54.234Z,24.07
2022-08-16T19:30:03.606Z,24.03
2022-08-16T19:33:11.581Z,24.02
2022-08-16T19:36:32.171Z,23.97
2022-08-16T19:39:42.073Z,23.93
2022-08-16T19:42:51.314Z,23.88
2022-08-16T19:45:58.200Z,23.91
2022-08-16T19:49:04.632Z,23.87
2022-08-16T19:52:19.156Z,23.86
2022-08-16T19:55:25.078Z,23.82
2022-08-16T19:58:34.678Z,23.80
2022-08-16T20:01:42.634Z,23.76
2022-08-16T20:04:49.688Z,23.75
2022-08-16T20:07:56.728Z,23.70
2022-08-16T20:11:09.228Z,23.63
2022-08-16T20:14:25.786Z,23.58
2022-08-16T20:17:33.019Z,23.59
2022-08-16T20:20:40.731Z,23.61
2022-08-16T20:23:47.805Z,23.59
2022-08-16T20:26:54.147Z,23.55
2022-08-16T20:30:10.710Z,23.53
2022-08-16T20:33:18.060Z,23.47
2022-08-16T20:36:24.945Z,23.43
2022-08-16T20:39:30.921Z,23.41
2022-08-16T20:42:37.753Z,23.41
2022-08-16T20:45:49.109Z,23.43
2022-08-16T20:48:56.134Z,23.40
2022-08-16T20:52:03.382Z,23.37
2022-08-16T20:55:11.209Z,23.33
2022-08-16T20:58:17.277Z,23.29
2022-08-16T21:01:27.351Z,23.23
2022-08-16T21:04:52.177Z,23.19
2022-08-16T21:07:59.202Z,23.19
2022-08-16T21:11:07.763Z,23.19
2022-08-16T21:14:14.643Z,23.19
2022-08-16T21:17:23.917Z,23.19
2022-08-16T21:20:30.876Z,23.15
2022-08-16T21:23:37.182Z,23.10
2022-08-16T21:26:47.437Z,23.05
2022-08-16T21:30:03.609Z,22.97
2022-08-16T21:33:15.621Z,22.92
2022-08-16T21:36:35.067Z,22.86
2022-08-16T21:39:43.290Z,22.81
2022-08-16T21:42:49.371Z,22.78
2022-08-16T21:45:57.281Z,22.74
2022-08-16T21:49:06.970Z,22.71
2022-08-16T21:52:22.685Z,22.67
2022-08-16T21:55:33.493Z,22.60
2022-08-16T21:58:40.790Z,22.57
2022-08-16T22:01:49.815Z,22.55
2022-08-16T22:05:00.622Z,22.51
2022-08-16T22:08:08.583Z,22.45
2022-08-16T22:11:15.397Z,22.42
2022-08-16T22:14:21.590Z,22.40
2022-08-16T22:17:28.381Z,22.38
2022-08-16T22:20:38.555Z,22.36
2022-08-16T22:23:45.302Z,22.35
2022-08-16T22:27:00.985Z,22.33
2022-08-16T22:30:09.705Z,22.32
2022-08-16T22:33:19.259Z,22.34
2022-08-16T22:36:29.530Z,22.37
2022-08-16T22:39:35.874Z,22.36
2022-08-16T22:42:50.779Z,22.33
2022-08-16T22:45:57.411Z,22.28
2022-08-16T22:49:04.417Z,22.25
2022-08-16T22:52:13.576Z,22.20
2022-08-16T22:55:41.983Z,22.13
2022-08-16T22:58:48.763Z,22.07
2022-08-16T23:01:56.025Z,22.03
2022-08-16T23:05:03.233Z,22.00
2022-08-16T23:08:15.884Z,21.97
2022-08-16T23:11:38.379Z,21.93
2022-08-16T23:14:45.423Z,21.93
2022-08-16T23:17:52.284Z,21.91
2022-08-16T23:21:03.698Z,21.85
2022-08-16T23:24:13.338Z,21.83
2022-08-16T23:27:20.443Z,21.78
2022-08-16T23:30:28.048Z,21.76
2022-08-16T23:33:35.283Z,21.73
2022-08-16T23:36:41.234Z,21.71
2022-08-16T23:39:54.542Z,21.70
2022-08-16T23:43:06.698Z,21.66
2022-08-16T23:46:17.167Z,21.60
2022-08-16T23:49:58.906Z,21.56
2022-08-16T23:53:07.340Z,21.54
2022-08-16T23:56:17.744Z,21.47
2022-08-16T23:59:24.492Z,21.42
